Time;durP1;ratioP1;P1;durP2;ratioP2;P2;SDS_P1;SDS_P2;PMS_P1;PMS_P2;Temp;Humidity;BMP_temperature;BMP_pressure;BME280_temperature;BME280_humidity;BME280_pressure;Samples;Min_cycle;Max_cycle;Signal;HPM_P1;HPM_P2
2023/09/10 00:01:22;;;;;;;8.63;7.93;;;23.20;61.90;;;;;;5030415;28;20582;-54
2023/09/10 00:03:51;;;;;;;8.52;7.72;;;23.20;61.70;;;;;;5023165;28;20065;-54
2023/09/10 00:06:18;;;;;;;9.55;8.48;;;23.10;61.70;;;;;;5030287;28;20049;-54
2023/09/10 00:08:45;;;;;;;10.57;7.82;;;23.10;61.90;;;;;;5030324;28;20112;-54
2023/09/10 00:11:11;;;;;;;8.68;7.85;;;23.10;61.90;;;;;;5030096;28;20096;-51
2023/09/10 00:13:39;;;;;;;9.05;8.15;;;23.10;61.90;;;;;;5027923;28;20053;-54
2023/09/10 00:16:08;;;;;;;8.80;7.95;;;23.10;61.90;;;;;;5029643;28;20060;-54
2023/09/10 00:18:35;;;;;;;8.38;7.68;;;23.00;61.90;;;;;;5029367;28;20052;-54
2023/09/10 00:21:05;;;;;;;8.48;7.78;;;23.00;62.00;;;;;;5027184;28;20041;-54
2023/09/10 00:23:35;;;;;;;8.57;7.78;;;23.00;62.30;;;;;;5027935;28;20045;-53
2023/09/10 00:26:02;;;;;;;9.00;8.10;;;23.00;62.10;;;;;;5030056;28;20129;-54
2023/09/10 00:28:34;;;;;;;8.82;7.93;;;23.00;62.20;;;;;;5030065;28;20088;-54
2023/09/10 00:31:02;;;;;;;10.13;8.15;;;22.90;62.30;;;;;;5026959;28;20043;-53
2023/09/10 00:33:31;;;;;;;8.85;8.02;;;22.90;62.50;;;;;;5025901;28;20519;-52
2023/09/10 00:35:57;;;;;;;8.60;7.90;;;22.90;62.30;;;;;;5030115;28;20037;-54
2023/09/10 00:38:25;;;;;;;9.02;8.23;;;22.90;62.40;;;;;;5029961;28;20124;-54
2023/09/10 00:40:52;;;;;;;10.68;8.13;;;22.90;62.50;;;;;;5026145;28;20060;-53
2023/09/10 00:43:19;;;;;;;9.02;8.13;;;22.90;62.40;;;;;;5028155;28;20048;-53
2023/09/10 00:45:46;;;;;;;9.23;8.07;;;22.90;62.50;;;;;;5028785;28;20081;-54
2023/09/10 00:48:15;;;;;;;9.15;8.35;;;22.80;62.50;;;;;;5028649;28;20040;-54
2023/09/10 00:50:44;;;;;;;9.63;8.68;;;22.80;62.50;;;;;;5026860;28;20061;-54
2023/09/10 00:53:12;;;;;;;9.55;8.57;;;22.80;62.60;;;;;;5028168;28;20117;-54
2023/09/10 00:55:40;;;;;;;10.90;8.48;;;22.80;62.60;;;;;;5028493;28;20048;-50
2023/09/10 00:58:08;;;;;;;10.40;8.55;;;22.80;62.70;;;;;;5026691;28;20116;-55
2023/09/10 01:00:35;;;;;;;9.90;7.82;;;22.80;62.70;;;;;;5025225;28;20467;-54
2023/09/10 01:03:05;;;;;;;9.23;8.43;;;22.70;62.70;;;;;;5027200;28;20041;-53
2023/09/10 01:05:35;;;;;;;8.23;7.63;;;22.70;62.80;;;;;;5028317;28;20467;-53
2023/09/10 01:08:03;;;;;;;8.60;7.60;;;22.70;62.90;;;;;;5028027;28;20037;-54
2023/09/10 01:10:44;;;;;;;8.88;7.75;;;22.70;63.30;;;;;;5025564;28;20041;-54
2023/09/10 01:13:49;;;;;;;8.70;7.88;;;22.70;63.10;;;;;;5028100;28;20065;-54
2023/09/10 01:16:46;;;;;;;8.13;7.53;;;22.70;63.30;;;;;;5026812;28;20065;-53
2023/09/10 01:19:45;;;;;;;8.27;7.38;;;22.60;63.10;;;;;;4995416;28;20108;-54
2023/09/10 01:22:53;;;;;;;8.65;7.85;;;22.60;63.40;;;;;;5048679;28;20423;-54
2023/09/10 01:25:24;;;;;;;8.27;7.47;;;22.60;63.30;;;;;;5028090;28;20041;-54
2023/09/10 01:27:56;;;;;;;8.88;7.28;;;22.50;63.00;;;;;;5023324;28;20041;-54
2023/09/10 01:30:23;;;;;;;9.63;8.27;;;22.50;63.70;;;;;;5030980;28;20038;-54
2023/09/10 01:33:03;;;;;;;8.50;7.65;;;22.50;63.00;;;;;;5030041;28;20041;-54
2023/09/10 01:35:39;;;;;;;8.80;7.90;;;22.50;63.50;;;;;;5030663;28;20041;-54
2023/09/10 01:38:09;;;;;;;8.77;7.00;;;22.40;63.40;;;;;;5033085;28;20448;-55
2023/09/10 01:40:45;;;;;;;7.95;7.15;;;22.40;63.20;;;;;;5030169;28;20048;-54
2023/09/10 01:43:12;;;;;;;8.88;7.97;;;22.40;63.50;;;;;;5030225;28;20045;-54
2023/09/10 01:45:40;;;;;;;8.10;7.38;;;22.30;63.30;;;;;;5031839;28;20779;-50
2023/09/10 01:48:18;;;;;;;7.88;7.18;;;22.30;63.30;;;;;;5030560;28;20029;-50
2023/09/10 01:50:47;;;;;;;7.88;7.07;;;22.30;63.60;;;;;;5031456;28;20480;-53
2023/09/10 01:53:16;;;;;;;8.70;7.88;;;22.30;63.40;;;;;;5032112;28;20041;-53
2023/09/10 01:55:44;;;;;;;8.18;7.35;;;22.30;63.50;;;;;;5029589;28;20029;-54
2023/09/10 01:58:14;;;;;;;6.97;6.43;;;22.30;63.60;;;;;;5030176;28;20483;-51
2023/09/10 02:00:42;;;;;;;8.85;6.90;;;22.30;63.60;;;;;;5031751;28;20608;-55
2023/09/10 02:03:09;;;;;;;8.35;7.25;;;22.30;63.70;;;;;;5028202;28;20100;-53
2023/09/10 02:05:41;;;;;;;7.13;6.50;;;22.20;63.70;;;;;;5030995;28;20053;-50
2023/09/10 02:08:10;;;;;;;7.45;6.72;;;22.20;63.70;;;;;;5031106;28;20068;-52
2023/09/10 02:10:43;;;;;;;8.50;7.47;;;22.20;63.70;;;;;;5031124;28;20037;-49
2023/09/10 02:13:10;;;;;;;9.30;7.85;;;22.20;63.80;;;;;;5030308;28;20045;-54
2023/09/10 02:15:39;;;;;;;7.97;6.95;;;22.20;63.80;;;;;;5032588;28;20050;-52
2023/09/10 02:18:08;;;;;;;7.50;6.78;;;22.20;63.80;;;;;;5030891;28;20112;-54
2023/09/10 02:20:36;;;;;;;9.60;6.90;;;22.10;64.20;;;;;;5031333;28;20499;-49
2023/09/10 02:23:06;;;;;;;7.30;6.65;;;22.10;64.00;;;;;;5031459;28;20077;-50
2023/09/10 02:25:41;;;;;;;8.52;7.68;;;22.10;64.00;;;;;;5032114;28;20120;-51
2023/09/10 02:28:12;;;;;;;8.65;7.85;;;22.10;64.00;;;;;;5030832;28;20578;-54
2023/09/10 02:30:38;;;;;;;9.15;8.15;;;22.10;64.00;;;;;;5030034;28;20115;-50
2023/09/10 02:33:09;;;;;;;8.32;6.85;;;22.10;64.10;;;;;;5026937;28;20128;-51
2023/09/10 02:35:36;;;;;;;9.50;7.45;;;22.00;64.00;;;;;;5014132;28;20075;-54
2023/09/10 02:38:04;;;;;;;7.43;6.72;;;22.00;64.00;;;;;;5030838;28;20033;-54
2023/09/10 02:40:37;;;;;;;7.43;6.72;;;22.00;64.10;;;;;;5014368;28;20046;-51
2023/09/10 02:43:04;;;;;;;7.28;6.60;;;22.00;64.10;;;;;;5027152;28;20064;-52
2023/09/10 02:45:32;;;;;;;7.68;7.05;;;22.00;64.10;;;;;;5030538;28;20415;-51
2023/09/10 02:47:59;;;;;;;7.15;6.55;;;22.00;64.20;;;;;;5030487;28;20044;-54
2023/09/10 02:50:25;;;;;;;15.13;7.38;;;22.00;64.30;;;;;;5058222;22;20418;-57
2023/09/10 02:52:54;;;;;;;7.63;6.93;;;22.00;64.30;;;;;;5049922;28;20121;-57
2023/09/10 02:55:22;;;;;;;8.18;7.38;;;21.90;64.30;;;;;;5051635;28;20036;-59
2023/09/10 02:57:49;;;;;;;8.10;7.28;;;21.90;64.30;;;;;;5066816;28;20074;-56
2023/09/10 03:00:19;;;;;;;8.95;7.88;;;21.90;64.30;;;;;;5049116;28;20033;-56
2023/09/10 03:02:50;;;;;;;9.75;8.75;;;21.90;64.30;;;;;;5043300;28;20037;-55
2023/09/10 03:05:19;;;;;;;8.50;7.85;;;21.90;64.40;;;;;;5051019;28;20095;-56
2023/09/10 03:07:46;;;;;;;9.13;8.32;;;21.90;64.50;;;;;;5062859;28;20032;-55
2023/09/10 03:10:18;;;;;;;8.25;7.45;;;21.90;64.50;;;;;;5060059;28;20407;-54
2023/09/10 03:12:45;;;;;;;9.20;8.00;;;21.90;64.70;;;;;;5055182;28;20082;-57
2023/09/10 03:15:14;;;;;;;8.57;7.72;;;21.80;64.50;;;;;;5044089;28;20099;-56
2023/09/10 03:17:44;;;;;;;8.57;7.55;;;21.80;64.50;;;;;;5063304;28;20051;-58
2023/09/10 03:20:15;;;;;;;10.20;8.18;;;21.80;64.50;;;;;;5049879;28;20040;-56
2023/09/10 03:22:44;;;;;;;10.82;8.15;;;21.80;64.50;;;;;;5060021;28;20132;-58
2023/09/10 03:25:12;;;;;;;9.05;8.15;;;21.80;64.60;;;;;;5061390;28;20040;-56
2023/09/10 03:27:39;;;;;;;9.05;7.70;;;21.80;64.60;;;;;;5060635;28;20091;-57
2023/09/10 03:30:06;;;;;;;8.45;7.75;;;21.70;64.60;;;;;;5037657;28;20032;-58
2023/09/10 03:32:33;;;;;;;9.77;8.85;;;21.70;64.70;;;;;;5037571;28;20111;-56
2023/09/10 03:35:04;;;;;;;8.73;7.93;;;21.70;64.70;;;;;;5059530;28;20035;-56
2023/09/10 03:37:31;;;;;;;8.85;7.95;;;21.70;64.80;;;;;;5059164;28;20051;-56
2023/09/10 03:39:59;;;;;;;9.75;8.85;;;21.70;64.70;;;;;;5052671;28;20033;-57
2023/09/10 03:42:26;;;;;;;9.38;8.48;;;21.70;64.80;;;;;;5044270;28;20049;-57
2023/09/10 03:44:53;;;;;;;9.88;8.95;;;21.70;64.80;;;;;;5041163;28;20043;-57
2023/09/10 03:47:19;;;;;;;9.27;8.48;;;21.60;64.80;;;;;;5048793;28;20135;-58
2023/09/10 03:49:49;;;;;;;8.98;8.18;;;21.60;64.80;;;;;;5037886;28;20056;-55
2023/09/10 03:52:17;;;;;;;9.73;8.82;;;21.60;64.90;;;;;;5058695;28;20082;-57
2023/09/10 03:54:45;;;;;;;8.77;7.88;;;21.60;64.90;;;;;;5050313;28;20107;-57
2023/09/10 03:57:14;;;;;;;10.25;7.97;;;21.60;64.90;;;;;;5047981;28;20578;-57
2023/09/10 03:59:41;;;;;;;9.82;8.82;;;21.60;65.10;;;;;;5052005;28;20040;-56
2023/09/10 04:02:13;;;;;;;9.98;9.07;;;21.60;65.00;;;;;;5056945;28;20041;-57
2023/09/10 04:04:42;;;;;;;9.35;8.43;;;21.60;65.10;;;;;;5037928;28;20075;-58
2023/09/10 04:07:09;;;;;;;10.13;9.10;;;21.50;65.30;;;;;;5042385;28;20032;-57
2023/09/10 04:09:36;;;;;;;9.55;8.75;;;21.50;65.10;;;;;;5058905;28;20041;-56
2023/09/10 04:12:03;;;;;;;10.43;9.25;;;21.50;65.20;;;;;;5050996;28;20087;-58
2023/09/10 04:14:30;;;;;;;9.57;8.65;;;21.50;65.10;;;;;;5037875;28;20122;-59
2023/09/10 04:16:59;;;;;;;9.15;8.30;;;21.50;65.00;;;;;;5043099;28;20043;-56
2023/09/10 04:19:27;;;;;;;8.93;8.15;;;21.50;65.20;;;;;;5057514;28;20045;-56
2023/09/10 04:21:54;;;;;;;9.43;8.43;;;21.50;65.20;;;;;;5058741;28;20115;-56
2023/09/10 04:24:23;;;;;;;9.38;8.48;;;21.40;65.10;;;;;;5039646;28;20128;-56
2023/09/10 04:26:50;;;;;;;10.13;9.18;;;21.40;65.20;;;;;;5042130;28;20052;-55
2023/09/10 04:29:22;;;;;;;8.98;8.05;;;21.40;65.30;;;;;;5048154;28;20155;-55
2023/09/10 04:31:48;;;;;;;8.70;7.90;;;21.40;65.30;;;;;;5043333;28;20041;-56
2023/09/10 04:34:18;;;;;;;9.55;8.48;;;21.40;65.30;;;;;;5038713;28;20129;-56
2023/09/10 04:36:47;;;;;;;9.48;8.57;;;21.40;65.20;;;;;;5037734;28;20125;-57
2023/09/10 04:39:19;;;;;;;9.50;8.60;;;21.40;65.30;;;;;;5064658;28;20045;-55
2023/09/10 04:41:48;;;;;;;9.00;8.13;;;21.40;65.40;;;;;;5034683;28;20041;-58
2023/09/10 04:44:20;;;;;;;8.35;7.65;;;21.40;65.50;;;;;;5038620;28;20077;-56
2023/09/10 04:46:47;;;;;;;9.82;8.88;;;21.40;65.60;;;;;;5057294;28;20052;-58
2023/09/10 04:49:14;;;;;;;9.63;8.75;;;21.30;65.60;;;;;;5033708;28;20069;-57
2023/09/10 04:51:43;;;;;;;8.10;7.40;;;21.30;65.50;;;;;;5053320;28;20466;-54
2023/09/10 04:54:12;;;;;;;9.43;8.63;;;21.30;65.50;;;;;;5051695;28;20037;-55
2023/09/10 04:56:39;;;;;;;8.27;7.55;;;21.30;65.60;;;;;;5029117;28;20064;-58
2023/09/10 04:59:07;;;;;;;9.30;8.60;;;21.20;65.60;;;;;;5046895;28;20040;-56
2023/09/10 05:01:34;;;;;;;10.07;9.18;;;21.30;65.60;;;;;;5032160;28;20045;-58
2023/09/10 05:04:02;;;;;;;8.73;8.02;;;21.30;65.70;;;;;;5049167;28;20383;-57
2023/09/10 05:06:31;;;;;;;9.07;8.23;;;21.30;65.80;;;;;;5053128;28;20041;-54
2023/09/10 05:08:58;;;;;;;9.00;8.30;;;21.20;65.80;;;;;;5052771;28;20068;-56
2023/09/10 05:11:28;;;;;;;10.27;9.32;;;21.20;65.90;;;;;;5051526;28;20040;-58
2023/09/10 05:13:56;;;;;;;10.27;9.23;;;21.20;66.20;;;;;;5052740;28;20507;-58
2023/09/10 05:16:22;;;;;;;10.00;9.00;;;21.20;66.10;;;;;;5047707;28;20041;-57
2023/09/10 05:18:50;;;;;;;11.00;9.30;;;21.20;66.20;;;;;;5053342;28;20091;-56
2023/09/10 05:21:23;;;;;;;10.85;9.70;;;21.20;66.30;;;;;;5034647;28;20049;-55
2023/09/10 05:23:52;;;;;;;9.57;8.73;;;21.20;66.50;;;;;;5057672;28;20470;-55
2023/09/10 05:26:19;;;;;;;10.90;9.80;;;21.30;66.40;;;;;;5057052;28;20044;-56
2023/09/10 05:28:48;;;;;;;10.57;9.52;;;21.20;66.60;;;;;;5043563;28;20447;-55
2023/09/10 05:31:15;;;;;;;11.10;9.55;;;21.30;67.00;;;;;;5043324;28;20037;-56
2023/09/10 05:33:47;;;;;;;10.88;9.90;;;21.30;66.90;;;;;;5050461;28;20044;-59
2023/09/10 05:36:14;;;;;;;10.43;9.48;;;21.30;66.90;;;;;;5043944;28;20036;-55
2023/09/10 05:38:45;;;;;;;9.70;8.90;;;21.30;67.10;;;;;;5058360;28;20523;-57
2023/09/10 05:41:12;;;;;;;10.10;9.05;;;21.30;67.10;;;;;;5046706;28;20084;-56
2023/09/10 05:43:43;;;;;;;10.00;9.18;;;21.40;67.20;;;;;;5057331;28;20055;-56
2023/09/10 05:46:13;;;;;;;9.40;8.50;;;21.40;67.50;;;;;;5060287;28;20040;-55
2023/09/10 05:48:42;;;;;;;14.70;9.10;;;21.30;67.90;;;;;;5038635;28;20045;-56
2023/09/10 05:51:09;;;;;;;10.00;9.10;;;21.40;67.40;;;;;;5057616;28;20033;-55
2023/09/10 05:53:38;;;;;;;10.48;9.48;;;21.40;67.50;;;;;;5040203;28;20052;-56
2023/09/10 05:56:10;;;;;;;9.80;8.90;;;21.50;67.60;;;;;;5056704;28;20029;-55
2023/09/10 05:58:41;;;;;;;10.98;9.88;;;21.50;67.70;;;;;;5040423;28;20049;-55
2023/09/10 06:01:08;;;;;;;11.02;9.98;;;21.50;68.00;;;;;;5056063;28;20037;-56
2023/09/10 06:03:37;;;;;;;9.25;8.25;;;21.60;67.90;;;;;;5048550;28;20069;-57
2023/09/10 06:06:07;;;;;;;11.57;9.35;;;21.60;68.00;;;;;;5033515;28;20059;-55
2023/09/10 06:08:34;;;;;;;9.77;8.93;;;21.60;68.10;;;;;;5050274;28;20466;-56
2023/09/10 06:11:01;;;;;;;9.82;9.02;;;21.60;68.20;;;;;;5049867;28;20049;-57
2023/09/10 06:13:30;;;;;;;11.32;9.05;;;21.70;68.40;;;;;;5048494;28;20041;-56
2023/09/10 06:16:00;;;;;;;10.60;9.70;;;21.70;68.40;;;;;;5050831;28;20092;-54
2023/09/10 06:18:27;;;;;;;10.70;9.55;;;21.70;68.50;;;;;;5052110;28;20515;-56
2023/09/10 06:20:55;;;;;;;11.07;10.20;;;21.80;68.60;;;;;;5048412;28;20502;-58
2023/09/10 06:23:25;;;;;;;11.48;10.35;;;21.80;68.80;;;;;;5047432;28;20458;-56
2023/09/10 06:25:55;;;;;;;11.82;10.68;;;21.90;69.30;;;;;;5040101;28;20140;-54
2023/09/10 06:28:29;;;;;;;12.68;10.07;;;21.90;69.20;;;;;;5026611;28;20056;-58
2023/09/10 06:30:55;;;;;;;11.38;10.18;;;21.90;69.10;;;;;;5031275;28;20055;-55
2023/09/10 06:33:25;;;;;;;11.98;10.00;;;22.00;69.20;;;;;;5025331;28;20041;-56
2023/09/10 06:35:52;;;;;;;13.13;11.55;;;22.00;69.30;;;;;;5028490;28;20520;-55
2023/09/10 06:38:19;;;;;;;14.07;11.18;;;22.00;69.50;;;;;;5031027;28;20164;-57
2023/09/10 06:40:46;;;;;;;12.05;10.85;;;22.10;69.60;;;;;;5019655;28;20075;-59
2023/09/10 06:43:13;;;;;;;12.48;11.18;;;22.10;69.70;;;;;;5042325;28;20499;-57
2023/09/10 06:46:06;;;;;;;12.52;11.23;;;22.20;69.80;;;;;;5034921;28;20056;-55
2023/09/10 06:48:33;;;;;;;13.13;10.77;;;22.30;69.90;;;;;;5045471;28;20730;-57
2023/09/10 06:51:01;;;;;;;13.00;11.00;;;22.30;70.00;;;;;;5041986;28;20060;-57
2023/09/10 06:53:28;;;;;;;12.05;10.88;;;22.40;70.20;;;;;;5049786;28;20044;-55
2023/09/10 06:55:56;;;;;;;12.27;11.07;;;22.40;70.30;;;;;;5056249;28;20403;-57
2023/09/10 06:58:23;;;;;;;12.20;10.48;;;22.50;70.50;;;;;;5051733;28;20044;-58
2023/09/10 07:00:50;;;;;;;13.27;11.52;;;22.50;70.40;;;;;;5049065;28;20120;-55
2023/09/10 07:03:16;;;;;;;13.20;11.70;;;22.50;70.50;;;;;;5045121;28;20111;-55
2023/09/10 07:05:43;;;;;;;14.88;12.82;;;22.70;70.80;;;;;;5051821;28;20045;-56
2023/09/10 07:08:11;;;;;;;12.35;10.20;;;22.70;70.60;;;;;;5049906;28;20407;-56
2023/09/10 07:10:38;;;;;;;12.05;10.85;;;22.70;70.70;;;;;;5050203;28;20420;-57
2023/09/10 07:13:06;;;;;;;12.48;11.13;;;22.80;70.80;;;;;;5048737;28;20065;-56
2023/09/10 07:15:33;;;;;;;12.40;10.38;;;22.80;70.90;;;;;;5045270;28;20041;-55
2023/09/10 07:18:00;;;;;;;14.50;11.25;;;22.90;70.90;;;;;;5050168;28;20384;-58
2023/09/10 07:20:27;;;;;;;11.75;10.57;;;23.00;71.00;;;;;;5047599;28;20061;-58
2023/09/10 07:22:54;;;;;;;11.00;9.90;;;23.00;71.00;;;;;;5040094;28;20459;-56
2023/09/10 07:25:20;;;;;;;25.25;12.35;;;23.10;71.00;;;;;;5032760;28;20045;-56
2023/09/10 07:27:47;;;;;;;12.38;10.52;;;23.10;71.00;;;;;;5046380;28;20069;-56
2023/09/10 07:30:14;;;;;;;13.98;10.95;;;23.20;70.90;;;;;;5045339;28;20056;-56
2023/09/10 07:32:41;;;;;;;11.00;9.90;;;23.30;70.90;;;;;;5037857;28;20042;-52
2023/09/10 07:35:10;;;;;;;15.38;11.40;;;23.40;71.00;;;;;;5046451;28;20033;-57
2023/09/10 07:37:37;;;;;;;13.50;10.70;;;23.40;70.90;;;;;;5049303;28;20136;-57
2023/09/10 07:40:04;;;;;;;13.07;10.20;;;23.50;70.80;;;;;;5042116;28;20570;-56
2023/09/10 07:42:31;;;;;;;11.90;9.23;;;23.60;70.80;;;;;;5046095;28;20438;-57
2023/09/10 07:44:58;;;;;;;13.75;10.38;;;23.60;70.90;;;;;;5042013;28;20084;-56
2023/09/10 07:47:24;;;;;;;13.82;9.95;;;23.70;70.70;;;;;;5050338;28;20064;-55
2023/09/10 07:49:51;;;;;;;10.48;9.40;;;23.80;70.70;;;;;;5044492;28;20638;-57
2023/09/10 07:52:18;;;;;;;12.10;9.02;;;23.80;70.40;;;;;;5051316;28;20047;-58
2023/09/10 07:54:47;;;;;;;14.45;9.45;;;23.90;70.30;;;;;;5051912;28;20375;-58
2023/09/10 07:57:20;;;;;;;10.88;9.43;;;23.90;70.10;;;;;;5046622;28;20033;-54
2023/09/10 07:59:49;;;;;;;10.63;9.60;;;24.00;70.00;;;;;;5049260;28;20076;-54
2023/09/10 08:02:26;;;;;;;10.68;9.50;;;24.10;69.90;;;;;;5047401;28;20139;-54
2023/09/10 08:04:58;;;;;;;11.27;9.68;;;24.20;70.20;;;;;;5050786;28;20053;-57
2023/09/10 08:07:25;;;;;;;11.02;9.73;;;24.20;69.80;;;;;;5042605;28;20048;-54
2023/09/10 08:09:52;;;;;;;15.93;10.00;;;24.30;69.90;;;;;;5049655;28;20119;-55
2023/09/10 08:12:23;;;;;;;9.95;8.77;;;24.30;69.90;;;;;;5038435;28;20549;-54
2023/09/10 08:14:49;;;;;;;13.20;8.82;;;24.40;70.20;;;;;;5045164;28;20551;-53
2023/09/10 08:17:16;;;;;;;12.48;9.35;;;24.50;69.70;;;;;;5049101;28;20380;-54
2023/09/10 08:19:43;;;;;;;10.05;8.88;;;24.50;69.40;;;;;;5046889;28;20725;-55
2023/09/10 08:22:15;;;;;;;11.88;8.45;;;24.60;69.30;;;;;;5038881;28;20124;-57
2023/09/10 08:24:46;;;;;;;8.07;7.32;;;24.70;69.10;;;;;;5050395;28;20072;-53
2023/09/10 08:27:12;;;;;;;7.95;7.13;;;24.80;68.70;;;;;;5048861;28;20049;-53
2023/09/10 08:29:39;;;;;;;11.45;8.27;;;24.80;68.50;;;;;;5040200;28;20553;-55
2023/09/10 08:32:10;;;;;;;9.57;7.95;;;24.90;68.50;;;;;;5045925;28;20057;-56
2023/09/10 08:34:39;;;;;;;10.65;8.10;;;25.00;68.70;;;;;;5045729;28;20046;-57
2023/09/10 08:37:11;;;;;;;8.80;7.15;;;25.10;68.40;;;;;;5049288;28;20106;-56
2023/09/10 08:39:40;;;;;;;9.35;6.85;;;25.20;68.40;;;;;;5033104;28;20047;-58
2023/09/10 08:42:18;;;;;;;8.93;7.22;;;25.20;68.30;;;;;;5043785;28;20099;-57
2023/09/10 08:44:53;;;;;;;10.02;7.60;;;25.30;68.00;;;;;;5048381;28;20080;-56
2023/09/10 08:47:22;;;;;;;10.68;8.43;;;25.50;67.90;;;;;;5046674;28;20099;-54
2023/09/10 08:49:57;;;;;;;10.23;7.47;;;25.50;67.50;;;;;;5033562;28;20403;-54
2023/09/10 08:52:25;;;;;;;8.68;7.70;;;25.60;68.00;;;;;;5040230;28;20048;-52
2023/09/10 08:54:52;;;;;;;8.98;7.22;;;25.70;67.30;;;;;;5049916;28;20045;-53
2023/09/10 08:57:19;;;;;;;10.52;7.50;;;25.80;67.00;;;;;;5041897;28;20131;-53
2023/09/10 08:59:47;;;;;;;9.95;7.38;;;25.80;66.90;;;;;;5074140;22;20068;-52
2023/09/10 09:02:14;;;;;;;9.27;7.13;;;25.90;66.70;;;;;;5050691;28;20410;-50
2023/09/10 09:04:41;;;;;;;8.27;7.38;;;26.00;66.70;;;;;;5063338;28;20044;-49
2023/09/10 09:07:12;;;;;;;10.13;7.53;;;26.10;66.70;;;;;;5068726;28;20045;-52
2023/09/10 09:09:44;;;;;;;7.93;7.00;;;26.20;66.00;;;;;;5063274;28;20072;-51
2023/09/10 09:12:13;;;;;;;13.20;7.53;;;26.20;65.80;;;;;;5042423;28;20474;-53
2023/09/10 09:14:42;;;;;;;12.05;7.03;;;26.30;65.70;;;;;;5038144;28;20041;-54
2023/09/10 09:17:14;;;;;;;10.27;6.40;;;26.40;66.00;;;;;;5037500;28;20496;-53
2023/09/10 09:19:44;;;;;;;10.53;6.90;;;26.50;65.70;;;;;;5042754;28;20049;-50
2023/09/10 09:22:14;;;;;;;8.73;6.72;;;26.50;65.70;;;;;;5562478;22;20132;-56
2023/09/10 09:24:41;;;;;;;10.38;7.63;;;26.60;65.50;;;;;;5025363;28;20060;-57
2023/09/10 09:27:10;;;;;;;8.20;6.82;;;26.70;65.40;;;;;;5020868;28;20113;-54
2023/09/10 09:29:37;;;;;;;6.93;6.03;;;26.70;65.80;;;;;;5029112;28;20055;-54
2023/09/10 09:32:04;;;;;;;7.38;5.88;;;26.80;65.60;;;;;;5020077;28;20117;-53
2023/09/10 09:34:33;;;;;;;8.30;6.72;;;26.90;65.00;;;;;;5023290;28;20044;-54
2023/09/10 09:37:00;;;;;;;10.60;7.88;;;27.00;64.70;;;;;;5028804;28;20041;-53
2023/09/10 09:39:29;;;;;;;11.13;6.85;;;27.00;64.80;;;;;;5026521;28;20077;-54
2023/09/10 09:41:56;;;;;;;13.10;6.47;;;27.10;64.40;;;;;;5021181;28;20049;-54
2023/09/10 09:44:23;;;;;;;7.25;6.35;;;27.10;65.00;;;;;;5028704;28;20077;-50
2023/09/10 09:46:55;;;;;;;8.13;6.18;;;27.20;63.90;;;;;;5026253;28;20049;-51
2023/09/10 09:49:21;;;;;;;8.30;6.28;;;27.30;63.90;;;;;;5025317;28;20049;-53
2023/09/10 09:51:48;;;;;;;9.07;7.30;;;27.30;64.10;;;;;;5030748;28;20422;-53
2023/09/10 09:54:15;;;;;;;6.57;5.97;;;27.40;63.80;;;;;;5032100;28;20513;-50
2023/09/10 09:56:43;;;;;;;9.18;6.10;;;27.40;63.70;;;;;;5027207;28;20144;-54
2023/09/10 09:59:12;;;;;;;9.52;6.65;;;27.50;63.30;;;;;;5031475;28;20131;-52
2023/09/10 10:01:39;;;;;;;10.38;6.95;;;27.60;63.10;;;;;;5030277;28;20041;-51
2023/09/10 10:04:07;;;;;;;11.23;6.57;;;27.70;63.30;;;;;;5029302;28;20121;-52
2023/09/10 10:06:36;;;;;;;7.03;6.38;;;27.70;63.40;;;;;;5030897;28;20665;-52
2023/09/10 10:09:15;;;;;;;10.05;7.68;;;27.80;62.80;;;;;;5030473;28;20092;-54
2023/09/10 10:11:42;;;;;;;10.20;6.40;;;27.90;62.70;;;;;;5026477;28;20069;-50
2023/09/10 10:14:12;;;;;;;9.75;6.55;;;27.90;62.40;;;;;;5032067;28;20130;-51
2023/09/10 10:16:40;;;;;;;7.05;6.32;;;28.00;62.40;;;;;;5031701;28;20438;-54
2023/09/10 10:19:07;;;;;;;11.20;6.72;;;28.00;61.90;;;;;;5025683;28;20045;-53
2023/09/10 10:21:34;;;;;;;6.45;5.75;;;28.10;62.10;;;;;;5027094;28;20073;-51
2023/09/10 10:24:02;;;;;;;10.30;6.20;;;28.20;62.10;;;;;;5022662;28;20654;-52
2023/09/10 10:26:30;;;;;;;9.50;6.35;;;28.20;61.40;;;;;;5031581;28;20053;-53
2023/09/10 10:29:01;;;;;;;9.82;6.72;;;28.30;61.60;;;;;;5026943;28;20037;-53
2023/09/10 10:31:31;;;;;;;9.00;6.60;;;28.40;61.30;;;;;;5029117;28;20064;-55
2023/09/10 10:34:03;;;;;;;9.18;6.20;;;28.40;60.90;;;;;;5025200;28;20053;-53
2023/09/10 10:36:54;;;;;;;6.55;5.75;;;28.50;60.80;;;;;;5030848;28;20038;-53
2023/09/10 10:39:40;;;;;;;7.32;6.03;;;28.60;60.60;;;;;;5031051;28;20095;-52
2023/09/10 10:42:11;;;;;;;6.28;5.78;;;28.70;60.50;;;;;;5024906;28;20503;-55
2023/09/10 10:44:39;;;;;;;6.97;5.82;;;28.80;60.50;;;;;;5027383;28;20041;-54
2023/09/10 10:47:17;;;;;;;7.53;6.47;;;28.90;60.40;;;;;;5031211;28;20104;-56
2023/09/10 10:49:52;;;;;;;7.53;6.25;;;28.90;59.90;;;;;;5024181;28;20120;-53
2023/09/10 10:52:33;;;;;;;11.63;6.72;;;29.00;59.90;;;;;;5027316;28;20124;-54
2023/09/10 10:55:00;;;;;;;12.35;6.25;;;29.10;59.30;;;;;;5032038;28;20076;-56
2023/09/10 10:57:27;;;;;;;11.48;5.55;;;29.10;59.50;;;;;;5027951;28;20569;-55
2023/09/10 10:59:55;;;;;;;6.43;5.43;;;29.20;59.20;;;;;;5028572;28;20080;-51
2023/09/10 11:02:23;;;;;;;10.20;5.95;;;29.20;59.10;;;;;;5025534;28;20121;-55
2023/09/10 11:04:55;;;;;;;6.75;5.70;;;29.30;58.90;;;;;;5030476;28;20450;-56
2023/09/10 11:07:23;;;;;;;8.05;6.20;;;29.40;58.60;;;;;;5029412;28;20045;-54
2023/09/10 11:09:50;;;;;;;8.82;5.45;;;29.40;58.40;;;;;;5030581;28;20460;-56
2023/09/10 11:12:17;;;;;;;6.35;5.72;;;29.50;59.10;;;;;;5026995;28;20130;-56
2023/09/10 11:14:59;;;;;;;6.85;4.72;;;29.60;58.80;;;;;;5025575;28;20037;-52
2023/09/10 11:17:31;;;;;;;;;;;29.70;58.20;;;;;;5028694;28;20061;-56
2023/09/10 11:19:59;;;;;;;7.75;5.20;;;29.80;58.60;;;;;;5031288;28;19944;-53
2023/09/10 11:22:27;;;;;;;7.10;5.30;;;29.80;57.40;;;;;;5024844;28;20038;-54
2023/09/10 11:25:01;;;;;;;8.18;6.18;;;29.90;57.10;;;;;;5029486;28;20041;-55
2023/09/10 11:27:33;;;;;;;6.88;5.13;;;29.90;55.90;;;;;;5029951;28;20076;-52
2023/09/10 11:30:13;;;;;;;7.50;5.05;;;30.00;56.20;;;;;;5031600;28;20060;-54
2023/09/10 11:32:43;;;;;;;6.93;5.57;;;30.10;56.40;;;;;;5023991;28;20049;-55
2023/09/10 11:35:24;;;;;;;6.22;5.53;;;30.20;55.40;;;;;;5028912;28;20045;-55
2023/09/10 11:37:55;;;;;;;6.47;4.90;;;30.20;55.60;;;;;;5025734;28;20037;-56
2023/09/10 11:40:25;;;;;;;7.10;5.50;;;30.30;55.30;;;;;;5028504;28;20087;-55
2023/09/10 11:42:55;;;;;;;7.72;5.38;;;30.40;55.70;;;;;;5029505;28;20116;-56
2023/09/10 11:45:33;;;;;;;6.50;5.20;;;30.40;55.90;;;;;;5027333;28;20083;-56
2023/09/10 11:47:59;;;;;;;10.02;5.22;;;30.50;55.10;;;;;;5029925;28;20045;-57
2023/09/10 11:50:29;;;;;;;5.80;5.20;;;30.60;54.90;;;;;;5026651;28;20044;-55
2023/09/10 11:53:00;;;;;;;8.45;4.82;;;30.60;54.00;;;;;;5029491;28;20800;-56
2023/09/10 11:55:27;;;;;;;10.13;4.38;;;30.70;53.60;;;;;;5029810;28;20033;-53
2023/09/10 11:57:54;;;;;;;11.15;6.45;;;30.80;53.40;;;;;;5029769;28;20033;-55
2023/09/10 12:00:22;;;;;;;7.43;5.32;;;30.90;54.40;;;;;;5028997;28;20084;-55
2023/09/10 12:02:52;;;;;;;8.00;4.72;;;30.90;53.30;;;;;;5025980;28;20049;-57
2023/09/10 12:05:19;;;;;;;5.75;4.30;;;31.00;53.10;;;;;;5027572;28;20054;-55
2023/09/10 12:07:49;;;;;;;4.75;4.03;;;31.10;53.30;;;;;;5029395;28;20052;-55
2023/09/10 12:10:21;;;;;;;6.25;4.85;;;31.20;52.80;;;;;;5030515;28;20042;-55
2023/09/10 12:12:49;;;;;;;10.55;4.72;;;31.30;52.70;;;;;;5023961;28;20101;-56
2023/09/10 12:15:21;;;;;;;7.97;5.38;;;31.30;51.90;;;;;;5030123;28;20419;-55
2023/09/10 12:17:49;;;;;;;4.97;4.22;;;31.40;51.50;;;;;;5030737;28;20523;-54
2023/09/10 12:20:16;;;;;;;7.40;4.97;;;31.50;51.70;;;;;;5026949;28;20135;-55
2023/09/10 12:22:43;;;;;;;5.53;4.60;;;31.50;51.70;;;;;;5030796;28;20045;-56
2023/09/10 12:25:12;;;;;;;5.55;4.70;;;31.60;52.30;;;;;;5030440;28;20060;-54
2023/09/10 12:27:38;;;;;;;6.60;4.55;;;31.70;51.90;;;;;;5036073;28;20083;-55
2023/09/10 12:30:12;;;;;;;6.93;5.00;;;31.80;51.60;;;;;;5027173;28;20045;-56
2023/09/10 12:32:39;;;;;;;5.25;4.22;;;31.80;51.60;;;;;;5028033;28;20045;-56
2023/09/10 12:35:14;;;;;;;5.35;4.63;;;32.00;52.00;;;;;;5030748;28;20044;-55
2023/09/10 12:37:49;;;;;;;6.18;4.47;;;32.00;51.20;;;;;;5031284;28;20482;-55
2023/09/10 12:40:22;;;;;;;7.13;4.20;;;32.20;50.80;;;;;;5029411;28;20581;-56
2023/09/10 12:42:49;;;;;;;6.25;4.80;;;32.20;52.40;;;;;;5024786;28;20029;-57
2023/09/10 12:45:17;;;;;;;6.57;4.43;;;32.30;51.20;;;;;;5031063;28;20041;-55
2023/09/10 12:47:44;;;;;;;8.30;4.75;;;32.40;50.40;;;;;;5028734;28;20499;-56
2023/09/10 12:50:13;;;;;;;8.63;4.80;;;32.40;49.70;;;;;;5026158;28;20033;-56
2023/09/10 12:52:41;;;;;;;5.55;4.43;;;32.50;49.80;;;;;;5030281;28;20088;-57
2023/09/10 12:55:12;;;;;;;7.72;4.40;;;32.60;50.30;;;;;;5031387;28;20045;-56